Time;durP1;ratioP1;P1;durP2;ratioP2;P2;SDS_P1;SDS_P2;PMS_P1;PMS_P2;Temp;Humidity;BMP_temperature;BMP_pressure;BME280_temperature;BME280_humidity;BME280_pressure;Samples;Min_cycle;Max_cycle;Signal;HPM_P1;HPM_P2
2023/04/30 00:00:09;;;;;;;7.40;5.60;;;;;;;13.31;96.05;96691.41;5069713;28;20539;-60
2023/04/30 00:02:36;;;;;;;6.85;5.75;;;;;;;13.23;97.30;96691.34;5070008;28;20212;-59
2023/04/30 00:05:02;;;;;;;5.87;5.27;;;;;;;13.25;98.05;96693.88;5069694;28;20558;-61
2023/04/30 00:07:29;;;;;;;6.80;6.20;;;;;;;13.26;97.00;96688.38;5069844;28;20546;-61
2023/04/30 00:09:56;;;;;;;7.33;5.90;;;;;;;13.23;96.21;96685.22;5071448;28;20230;-62
2023/04/30 00:12:24;;;;;;;6.10;5.50;;;;;;;13.24;95.57;96693.03;5087090;28;20207;-62
2023/04/30 00:14:51;;;;;;;6.60;6.00;;;;;;;13.23;96.16;96690.50;5089704;28;20214;-62
2023/04/30 00:17:20;;;;;;;6.47;5.97;;;;;;;13.17;95.89;96691.16;5075213;28;20256;-61
2023/04/30 00:19:47;;;;;;;6.37;5.77;;;;;;;13.18;95.81;96690.97;5069494;28;20284;-61
2023/04/30 00:22:13;;;;;;;6.70;5.73;;;;;;;13.15;97.54;96687.81;5070037;28;20199;-62
2023/04/30 00:24:40;;;;;;;6.50;5.90;;;;;;;13.04;97.90;96688.88;5069781;28;20206;-62
2023/04/30 00:27:07;;;;;;;7.07;6.47;;;;;;;13.06;96.84;96688.72;5069073;28;20230;-61
2023/04/30 00:29:34;;;;;;;7.07;6.47;;;;;;;13.04;97.36;96680.09;5069342;28;20264;-62
2023/04/30 00:32:03;;;;;;;6.30;5.80;;;;;;;13.03;98.54;96678.44;5089406;28;20214;-61
2023/04/30 00:34:29;;;;;;;6.67;6.07;;;;;;;12.94;100.00;96678.38;5091042;28;20206;-62
2023/04/30 00:36:56;;;;;;;7.00;6.40;;;;;;;12.87;100.00;96674.69;5087285;28;20274;-61
2023/04/30 00:39:22;;;;;;;6.63;6.03;;;;;;;12.89;100.00;96677.19;5069985;28;20210;-60
2023/04/30 00:41:49;;;;;;;6.87;6.17;;;;;;;12.86;100.00;96672.16;5069898;28;20203;-61
2023/04/30 00:44:17;;;;;;;6.57;6.03;;;;;;;12.86;100.00;96673.00;5070254;28;20534;-61
2023/04/30 00:46:43;;;;;;;7.67;5.87;;;;;;;12.82;100.00;96676.16;5073137;28;20264;-61
2023/04/30 00:49:10;;;;;;;6.63;5.93;;;;;;;12.76;100.00;96682.06;5072865;28;20210;-60
2023/04/30 00:51:37;;;;;;;6.90;6.30;;;;;;;12.69;100.00;96671.25;5073561;28;20252;-61
2023/04/30 00:54:03;;;;;;;7.07;6.37;;;;;;;12.58;100.00;96675.97;5073557;28;20517;-61
2023/04/30 00:56:30;;;;;;;7.80;6.97;;;;;;;12.55;100.00;96674.44;5072907;28;20206;-62
2023/04/30 00:58:57;;;;;;;7.40;6.73;;;;;;;12.52;100.00;96669.47;5072711;28;20244;-60
2023/04/30 01:01:27;;;;;;;7.37;6.67;;;;;;;12.55;100.00;96666.50;5073557;28;20194;-61
2023/04/30 01:03:54;;;;;;;6.80;6.27;;;;;;;12.54;100.00;96661.38;5073373;28;20232;-62
2023/04/30 01:06:20;;;;;;;6.50;5.93;;;;;;;12.60;100.00;96666.03;5073240;28;20866;-61
2023/04/30 01:08:47;;;;;;;7.57;6.87;;;;;;;12.60;100.00;96658.91;5072016;28;20214;-62
2023/04/30 01:11:22;;;;;;;6.90;6.20;;;;;;;12.62;100.00;96667.53;5072925;28;20218;-61
2023/04/30 01:13:55;;;;;;;7.60;6.90;;;;;;;12.64;100.00;96665.59;5072131;28;20217;-61
2023/04/30 01:16:25;;;;;;;7.40;6.80;;;;;;;12.67;100.00;96662.63;5072913;28;20198;-60
2023/04/30 01:18:57;;;;;;;7.57;6.87;;;;;;;12.65;100.00;96661.09;5072688;28;20848;-60
2023/04/30 01:21:24;;;;;;;7.37;6.67;;;;;;;12.63;100.00;96666.56;5072434;28;20639;-60
2023/04/30 01:24:06;;;;;;;7.93;7.17;;;;;;;12.53;100.00;96663.19;5072050;28;20202;-61
2023/04/30 01:26:53;;;;;;;7.43;6.83;;;;;;;12.58;100.00;96660.03;5072639;28;20551;-61
2023/04/30 01:29:24;;;;;;;7.47;6.80;;;;;;;12.58;100.00;96657.38;5071072;28;20267;-61
2023/04/30 01:31:50;;;;;;;7.67;6.90;;;;;;;12.54;100.00;96656.88;5073483;28;20206;-61
2023/04/30 01:34:17;;;;;;;7.87;7.20;;;;;;;12.55;100.00;96647.09;5072472;28;20203;-61
2023/04/30 01:36:53;;;;;;;8.23;6.87;;;;;;;12.58;100.00;96652.09;5073704;28;20217;-61
2023/04/30 01:39:28;;;;;;;7.30;6.70;;;;;;;12.60;100.00;96661.56;5073909;28;20537;-61
2023/04/30 01:42:08;;;;;;;7.53;6.90;;;;;;;12.59;100.00;96659.91;5073123;28;20202;-61
2023/04/30 01:44:45;;;;;;;7.60;6.60;;;;;;;12.59;100.00;96657.25;5072966;28;20900;-61
2023/04/30 01:47:19;;;;;;;8.20;6.80;;;;;;;12.56;100.00;96649.59;5075322;28;20194;-62
2023/04/30 01:49:52;;;;;;;7.40;6.70;;;;;;;12.53;100.00;96655.22;5075123;28;20195;-64
2023/04/30 01:52:23;;;;;;;7.13;6.50;;;;;;;12.49;100.00;96643.25;5075665;28;20649;-62
2023/04/30 01:54:53;;;;;;;7.70;6.97;;;;;;;12.47;100.00;96650.50;5077178;28;20199;-61
2023/04/30 01:57:29;;;;;;;7.70;7.00;;;;;;;12.49;100.00;96648.56;5078638;28;20191;-62
2023/04/30 01:59:58;;;;;;;7.10;6.50;;;;;;;12.47;100.00;96640.75;5074355;28;20190;-61
2023/04/30 02:02:24;;;;;;;7.17;6.47;;;;;;;12.42;100.00;96651.00;5071598;28;20648;-59
2023/04/30 02:04:50;;;;;;;7.93;6.80;;;;;;;12.44;100.00;96648.16;5071480;28;20622;-60
2023/04/30 02:07:21;;;;;;;7.60;6.90;;;;;;;12.40;100.00;96645.00;5071896;28;20218;-62
2023/04/30 02:09:48;;;;;;;6.90;6.30;;;;;;;12.40;100.00;96646.81;5071067;28;20670;-60
2023/04/30 02:12:15;;;;;;;7.90;6.77;;;;;;;12.40;100.00;96641.50;5071546;28;20209;-60
2023/04/30 02:14:41;;;;;;;7.40;6.80;;;;;;;12.35;100.00;96644.66;5069909;28;20202;-62
2023/04/30 02:17:10;;;;;;;7.23;6.63;;;;;;;12.40;100.00;96649.47;5071363;28;20223;-60
2023/04/30 02:19:36;;;;;;;7.80;7.10;;;;;;;12.33;100.00;96643.09;5070678;28;20230;-60
2023/04/30 02:22:02;;;;;;;7.47;6.77;;;;;;;12.29;100.00;96647.09;5071363;28;20535;-59
2023/04/30 02:24:29;;;;;;;7.27;6.57;;;;;;;12.37;100.00;96644.47;5071798;28;20607;-59
2023/04/30 02:26:55;;;;;;;7.93;7.10;;;;;;;12.36;100.00;96643.63;5071682;28;20222;-59
2023/04/30 02:29:22;;;;;;;8.07;6.07;;;;;;;12.42;100.00;96644.84;5071278;28;20209;-61
2023/04/30 02:31:48;;;;;;;7.40;6.70;;;;;;;12.36;100.00;96648.13;5071183;28;20226;-60
2023/04/30 02:34:19;;;;;;;7.20;6.60;;;;;;;12.30;100.00;96644.25;5071296;28;20848;-60
2023/04/30 02:36:46;;;;;;;7.03;6.33;;;;;;;12.37;100.00;96644.47;5070737;28;20198;-59
2023/04/30 02:39:13;;;;;;;7.47;6.77;;;;;;;12.32;100.00;96641.47;5071185;28;20852;-61
2023/04/30 02:41:40;;;;;;;6.87;6.13;;;;;;;12.36;100.00;96656.91;5070560;28;20210;-60
2023/04/30 02:44:07;;;;;;;7.20;6.60;;;;;;;12.41;100.00;96646.66;5070986;28;20206;-59
2023/04/30 02:46:33;;;;;;;7.17;6.57;;;;;;;12.41;100.00;96646.66;5070193;28;20358;-59
2023/04/30 02:49:00;;;;;;;10.07;7.00;;;;;;;12.42;100.00;96645.69;5071200;28;20267;-59
2023/04/30 02:51:28;;;;;;;7.13;6.53;;;;;;;12.40;100.00;96637.03;5070786;28;20228;-59
2023/04/30 02:53:54;;;;;;;6.73;6.03;;;;;;;12.46;100.00;96646.22;5071157;28;20263;-59
2023/04/30 02:56:22;;;;;;;6.63;6.03;;;;;;;12.48;100.00;96641.56;5071112;28;20206;-60
2023/04/30 02:58:48;;;;;;;8.67;6.13;;;;;;;12.51;100.00;96641.25;5070691;28;20531;-59
2023/04/30 03:01:17;;;;;;;7.87;7.17;;;;;;;12.46;100.00;96639.09;5070567;28;20631;-61
2023/04/30 03:03:44;;;;;;;6.93;6.27;;;;;;;12.46;100.00;96638.25;5069882;28;20237;-61
2023/04/30 03:06:11;;;;;;;7.53;6.73;;;;;;;12.40;100.00;96639.69;5069624;28;20688;-60
2023/04/30 03:08:38;;;;;;;9.03;6.57;;;;;;;12.42;100.00;96631.59;5070461;28;20209;-60
2023/04/30 03:11:05;;;;;;;9.07;6.70;;;;;;;12.35;100.00;96643.81;5070455;28;20230;-60
2023/04/30 03:13:33;;;;;;;8.97;6.90;;;;;;;12.28;100.00;96632.97;5069576;28;20642;-59
2023/04/30 03:16:00;;;;;;;7.33;6.60;;;;;;;12.28;100.00;96635.63;5070240;28;20543;-59
2023/04/30 03:18:26;;;;;;;6.40;5.83;;;;;;;12.31;100.00;96634.50;5070097;28;20199;-59
2023/04/30 03:20:53;;;;;;;7.13;6.53;;;;;;;12.34;100.00;96634.19;5069888;28;20234;-60
2023/04/30 03:23:22;;;;;;;7.30;6.60;;;;;;;12.33;100.00;96633.34;5070536;28;20194;-59
2023/04/30 03:25:51;;;;;;;6.83;6.23;;;;;;;12.33;100.00;96640.47;5069889;28;20612;-60
2023/04/30 03:28:18;;;;;;;6.93;6.33;;;;;;;12.34;100.00;96623.56;5070699;28;20199;-59
2023/04/30 03:30:44;;;;;;;8.47;7.23;;;;;;;12.33;100.00;96632.50;5069722;28;20238;-60
2023/04/30 03:33:11;;;;;;;7.20;6.50;;;;;;;12.33;100.00;96627.19;5070402;28;20203;-60
2023/04/30 03:35:38;;;;;;;7.13;6.43;;;;;;;12.31;100.00;96629.19;5070624;28;20211;-59
2023/04/30 03:38:04;;;;;;;7.47;6.77;;;;;;;12.34;100.00;96632.38;5070480;28;20198;-60
2023/04/30 03:40:31;;;;;;;9.97;7.10;;;;;;;12.33;100.00;96630.69;5069740;28;20217;-61
2023/04/30 03:42:59;;;;;;;7.70;6.97;;;;;;;12.25;100.00;96627.16;5070363;28;20217;-60
2023/04/30 03:45:25;;;;;;;7.13;6.40;;;;;;;12.27;100.00;96628.66;5069898;28;20540;-60
2023/04/30 03:47:52;;;;;;;7.13;6.53;;;;;;;12.26;100.00;96628.81;5070146;28;20571;-60
2023/04/30 03:50:18;;;;;;;6.70;6.10;;;;;;;12.31;100.00;96629.19;5069603;28;20247;-60
2023/04/30 03:52:45;;;;;;;7.10;6.50;;;;;;;12.34;100.00;96628.88;5070597;28;20248;-60
2023/04/30 03:55:12;;;;;;;6.40;5.90;;;;;;;12.33;100.00;96622.72;5070053;28;20309;-60
2023/04/30 03:57:39;;;;;;;6.70;6.10;;;;;;;12.28;100.00;96624.19;5069735;28;20669;-60
2023/04/30 04:00:09;;;;;;;7.70;6.90;;;;;;;12.33;100.00;96622.72;5069673;28;20877;-61
2023/04/30 04:02:35;;;;;;;7.10;6.40;;;;;;;12.37;100.00;96626.75;5069127;28;20638;-59
2023/04/30 04:05:02;;;;;;;7.13;6.00;;;;;;;12.40;100.00;96625.59;5070521;28;20295;-60
2023/04/30 04:07:29;;;;;;;7.77;7.07;;;;;;;12.48;100.00;96625.66;5070311;28;20293;-60
2023/04/30 04:09:56;;;;;;;7.43;6.73;;;;;;;12.43;100.00;96627.97;5069941;28;20642;-60
2023/04/30 04:12:22;;;;;;;7.23;6.50;;;;;;;12.43;100.00;96633.28;5070134;28;20231;-59
2023/04/30 04:14:49;;;;;;;7.10;6.50;;;;;;;12.46;100.00;96633.78;5069972;28;20206;-60
2023/04/30 04:17:17;;;;;;;7.43;6.73;;;;;;;12.44;100.00;96635.75;5070206;28;20202;-60
2023/04/30 04:19:44;;;;;;;7.50;6.90;;;;;;;12.35;100.00;96638.50;5071102;28;20651;-59
2023/04/30 04:22:10;;;;;;;7.13;6.40;;;;;;;12.41;100.00;96633.41;5073824;28;20206;-59
2023/04/30 04:24:39;;;;;;;7.70;7.00;;;;;;;12.46;100.00;96632.97;5073299;28;20512;-59
2023/04/30 04:27:07;;;;;;;7.30;6.60;;;;;;;12.47;100.00;96634.59;5074362;28;20234;-61
2023/04/30 04:29:33;;;;;;;10.80;7.03;;;;;;;12.41;100.00;96632.56;5073390;28;20263;-60
2023/04/30 04:32:01;;;;;;;7.20;6.57;;;;;;;12.46;100.00;96632.97;5074151;28;20218;-60
2023/04/30 04:34:29;;;;;;;7.07;6.47;;;;;;;12.51;100.00;96629.81;5092937;28;20212;-61
2023/04/30 04:36:58;;;;;;;7.50;6.80;;;;;;;12.54;100.00;96640.94;5094579;28;20187;-60
2023/04/30 04:39:24;;;;;;;7.80;7.10;;;;;;;12.45;100.00;96633.94;5077313;28;20198;-60
2023/04/30 04:41:51;;;;;;;7.70;7.10;;;;;;;12.53;100.00;96636.66;5073483;28;20202;-60
2023/04/30 04:44:18;;;;;;;8.70;7.57;;;;;;;12.45;100.00;96641.88;5073034;28;20202;-60
2023/04/30 04:46:44;;;;;;;6.80;6.20;;;;;;;12.46;100.00;96646.22;5074342;28;20300;-60
2023/04/30 04:49:11;;;;;;;7.23;6.63;;;;;;;12.49;100.00;96643.25;5074827;28;20211;-60
2023/04/30 04:51:39;;;;;;;8.17;7.47;;;;;;;12.53;100.00;96649.06;5073912;28;20222;-60
2023/04/30 04:54:07;;;;;;;8.13;7.43;;;;;;;12.52;100.00;96650.91;5092792;28;20203;-60
2023/04/30 04:56:35;;;;;;;7.70;6.90;;;;;;;12.44;100.00;96646.34;5094617;28;20199;-60
2023/04/30 04:59:02;;;;;;;7.93;7.20;;;;;;;12.43;100.00;96654.47;5092404;28;20541;-60
2023/04/30 05:01:29;;;;;;;8.73;7.83;;;;;;;12.38;100.00;96651.44;5073070;28;20595;-60
2023/04/30 05:03:56;;;;;;;7.80;7.07;;;;;;;12.38;100.00;96643.50;5073408;28;20243;-59
2023/04/30 05:06:22;;;;;;;8.17;7.37;;;;;;;12.39;100.00;96642.50;5072669;28;20199;-59
2023/04/30 05:08:50;;;;;;;8.30;7.60;;;;;;;12.34;100.00;96639.47;5073401;28;20195;-60
2023/04/30 05:11:16;;;;;;;8.73;6.97;;;;;;;12.38;100.00;96639.03;5073126;28;20583;-60
2023/04/30 05:13:43;;;;;;;7.90;7.20;;;;;;;12.43;100.00;96638.56;5071862;28;20199;-60
2023/04/30 05:16:09;;;;;;;8.73;7.73;;;;;;;12.59;100.00;96636.03;5073046;28;20195;-60
2023/04/30 05:18:36;;;;;;;7.30;6.60;;;;;;;13.12;100.00;96637.69;5073168;28;20265;-60
2023/04/30 05:21:03;;;;;;;7.50;6.80;;;;;;;13.80;98.18;96636.59;5071483;28;20763;-60
2023/04/30 05:23:29;;;;;;;8.10;7.23;;;;;;;14.45;92.36;96631.38;5071964;28;20291;-60
2023/04/30 05:25:57;;;;;;;7.77;6.97;;;;;;;14.98;90.63;96632.63;5073344;28;20206;-61
2023/04/30 05:28:25;;;;;;;7.53;6.80;;;;;;;15.15;85.49;96634.22;5071862;28;20217;-60
2023/04/30 05:30:51;;;;;;;7.53;6.82;;;;;;;15.58;84.29;96632.94;5071686;28;20665;-60
2023/04/30 05:33:18;;;;;;;6.75;6.15;;;;;;;15.75;83.39;96638.00;5072334;28;20202;-60
2023/04/30 05:35:44;;;;;;;7.00;6.30;;;;;;;15.69;83.52;96624.53;5072090;28;21371;-60
2023/04/30 05:38:11;;;;;;;7.00;6.30;;;;;;;16.20;81.96;96633.69;5072581;28;20234;-61
2023/04/30 05:40:37;;;;;;;6.50;5.80;;;;;;;16.31;79.95;96633.28;5072361;28;20199;-60
2023/04/30 05:43:05;;;;;;;6.40;5.90;;;;;;;16.09;78.06;96642.94;5071387;28;20627;-60
2023/04/30 05:45:31;;;;;;;6.13;5.55;;;;;;;15.76;79.79;96637.00;5072792;28;20300;-59
2023/04/30 05:47:58;;;;;;;8.10;6.30;;;;;;;15.22;82.46;96632.53;5072310;28;20203;-60
2023/04/30 05:50:24;;;;;;;5.88;5.38;;;;;;;15.16;83.80;96635.91;5071460;28;20214;-60
2023/04/30 05:52:51;;;;;;;6.22;5.72;;;;;;;14.82;84.75;96639.63;5071330;28;20233;-60
2023/04/30 05:55:18;;;;;;;6.87;6.27;;;;;;;14.62;87.08;96640.16;5072360;28;20700;-59
2023/04/30 05:57:44;;;;;;;6.57;5.97;;;;;;;14.57;87.17;96634.50;5072047;28;20202;-60
2023/04/30 06:00:14;;;;;;;6.70;6.10;;;;;;;14.53;87.15;96636.66;5072103;28;20710;-60
2023/04/30 06:02:44;;;;;;;6.53;5.93;;;;;;;14.29;88.16;96634.00;5072182;28;20210;-60
2023/04/30 06:05:11;;;;;;;6.37;5.87;;;;;;;14.31;88.85;96638.13;5073083;28;20646;-61
2023/04/30 06:07:37;;;;;;;6.53;5.93;;;;;;;14.21;89.92;96647.28;5071099;28;20643;-62
2023/04/30 06:10:05;;;;;;;7.20;6.50;;;;;;;13.90;91.82;96631.13;5072192;28;20689;-60
2023/04/30 06:12:32;;;;;;;6.93;5.80;;;;;;;13.85;92.30;96628.16;5071330;28;20237;-60
2023/04/30 06:15:00;;;;;;;6.73;6.13;;;;;;;13.66;93.45;96623.13;5072035;28;20199;-60
2023/04/30 06:17:28;;;;;;;7.00;6.40;;;;;;;13.51;94.26;96622.91;5071364;28;20217;-60
2023/04/30 06:19:57;;;;;;;6.40;5.90;;;;;;;13.36;95.19;96629.81;5071071;28;20241;-59
2023/04/30 06:22:23;;;;;;;7.37;6.67;;;;;;;13.21;96.69;96619.00;5071844;28;20198;-61
2023/04/30 06:24:50;;;;;;;6.70;6.10;;;;;;;13.27;96.94;96630.78;5070716;28;20202;-61
2023/04/30 06:27:17;;;;;;;7.00;6.30;;;;;;;13.18;98.43;96623.78;5071046;28;20252;-61
2023/04/30 06:29:43;;;;;;;7.47;6.77;;;;;;;13.12;98.14;96624.41;5071109;28;20229;-61
2023/04/30 06:32:10;;;;;;;6.20;5.67;;;;;;;13.17;98.81;96632.75;5071904;28;20229;-60
2023/04/30 06:34:38;;;;;;;6.77;6.17;;;;;;;13.16;99.49;96633.72;5071332;28;20217;-60
2023/04/30 06:37:05;;;;;;;7.00;6.40;;;;;;;13.07;98.84;96632.00;5070834;28;20619;-61
2023/04/30 06:39:32;;;;;;;9.53;5.80;;;;;;;13.07;100.00;96626.69;5071469;28;20225;-61
2023/04/30 06:41:58;;;;;;;6.80;6.20;;;;;;;12.95;100.00;96632.28;5070507;28;20206;-60
2023/04/30 06:44:27;;;;;;;6.93;6.23;;;;;;;12.86;99.88;96629.72;5071436;28;20581;-61
2023/04/30 06:46:54;;;;;;;6.70;6.10;;;;;;;12.92;100.00;96637.06;5071752;28;20211;-60
2023/04/30 06:49:20;;;;;;;6.60;5.90;;;;;;;13.01;99.96;96633.44;5071502;28;20206;-60
2023/04/30 06:51:48;;;;;;;6.80;6.20;;;;;;;13.13;100.00;96631.38;5071391;28;20325;-60
2023/04/30 06:54:16;;;;;;;7.07;6.47;;;;;;;13.08;100.00;96639.78;5070869;28;20198;-59
2023/04/30 06:56:43;;;;;;;6.63;6.03;;;;;;;13.07;99.96;96647.94;5072614;28;20202;-61
2023/04/30 06:59:12;;;;;;;7.60;6.93;;;;;;;12.95;100.00;96640.22;5095059;28;20174;-61
2023/04/30 07:01:39;;;;;;;7.13;6.53;;;;;;;13.03;99.33;96642.09;5096252;28;20183;-60
2023/04/30 07:04:06;;;;;;;6.50;5.90;;;;;;;13.13;100.00;96639.34;5095758;28;21207;-61
2023/04/30 07:06:32;;;;;;;7.43;6.53;;;;;;;13.17;97.94;96641.53;5096482;28;20209;-60
2023/04/30 07:09:03;;;;;;;7.30;6.60;;;;;;;13.08;98.76;96641.59;5092657;28;20178;-61
2023/04/30 07:11:29;;;;;;;6.60;6.03;;;;;;;13.18;98.38;96639.72;5096757;28;20191;-60
2023/04/30 07:13:56;;;;;;;7.03;6.43;;;;;;;13.17;97.58;96638.88;5094407;28;20190;-60
2023/04/30 07:16:25;;;;;;;7.20;6.60;;;;;;;13.17;97.52;96638.06;5090996;28;21056;-60
2023/04/30 07:18:51;;;;;;;6.93;6.33;;;;;;;13.26;97.54;96626.47;5071536;28;20198;-60
2023/04/30 07:21:18;;;;;;;6.80;6.20;;;;;;;13.44;98.37;96624.53;5071940;28;20202;-59
2023/04/30 07:23:44;;;;;;;7.37;6.60;;;;;;;13.48;98.00;96628.53;5075353;28;20612;-60
2023/04/30 07:26:12;;;;;;;7.83;7.13;;;;;;;13.36;96.73;96621.84;5071386;28;20198;-60
2023/04/30 07:28:40;;;;;;;6.93;6.33;;;;;;;13.54;96.66;96622.56;5070217;28;20210;-60
2023/04/30 07:31:06;;;;;;;7.20;6.60;;;;;;;13.56;96.63;96625.91;5070641;28;20631;-61
2023/04/30 07:33:33;;;;;;;6.90;6.30;;;;;;;13.59;95.69;96627.41;5070426;28;20666;-60
2023/04/30 07:35:59;;;;;;;7.30;6.60;;;;;;;13.54;95.28;96617.25;5070846;28;20211;-60
2023/04/30 07:38:26;;;;;;;7.77;7.07;;;;;;;13.62;95.53;96627.91;5069943;28;20234;-60
2023/04/30 07:40:52;;;;;;;6.97;6.37;;;;;;;13.57;95.42;96619.59;5071459;28;20217;-60
2023/04/30 07:43:20;;;;;;;6.77;6.17;;;;;;;13.72;95.31;96625.13;5070119;28;20199;-61
2023/04/30 07:45:48;;;;;;;6.70;6.10;;;;;;;13.84;95.88;96623.81;5072025;28;20194;-61
2023/04/30 07:48:15;;;;;;;6.63;6.13;;;;;;;14.14;94.30;96627.66;5072300;28;20202;-61
2023/04/30 07:50:41;;;;;;;7.87;7.17;;;;;;;14.38;92.39;96625.06;5071365;28;20207;-60
2023/04/30 07:53:09;;;;;;;7.40;6.80;;;;;;;14.45;91.18;96628.72;5073064;28;20273;-60
2023/04/30 07:55:37;;;;;;;7.37;6.77;;;;;;;14.41;89.69;96632.69;5075055;28;20248;-60
2023/04/30 07:58:03;;;;;;;8.23;6.83;;;;;;;14.31;89.99;96629.34;5074014;28;20202;-60
2023/04/30 08:00:31;;;;;;;7.17;6.57;;;;;;;14.61;90.18;96620.69;5074997;28;20297;-61
2023/04/30 08:02:59;;;;;;;7.27;6.10;;;;;;;14.71;89.88;96620.50;5074542;28;20198;-61
2023/04/30 08:05:27;;;;;;;6.83;6.30;;;;;;;14.55;88.67;96625.88;5074531;28;20207;-60
2023/04/30 08:07:54;;;;;;;6.43;5.93;;;;;;;14.52;89.30;96616.41;5073842;28;20543;-60
2023/04/30 08:10:20;;;;;;;6.93;6.33;;;;;;;14.52;90.14;96616.41;5074675;28;20207;-61
2023/04/30 08:12:47;;;;;;;6.38;5.85;;;;;;;14.63;89.86;96617.88;5073418;28;20218;-60
2023/04/30 08:15:14;;;;;;;6.67;6.07;;;;;;;14.64;91.04;96624.84;5074676;28;20198;-60
2023/04/30 08:17:43;;;;;;;6.60;6.07;;;;;;;14.74;89.91;96618.34;5073557;28;20213;-60
2023/04/30 08:20:11;;;;;;;6.70;5.93;;;;;;;14.84;89.23;96623.50;5073731;28;20329;-60
2023/04/30 08:22:37;;;;;;;7.07;6.15;;;;;;;14.79;88.36;96625.84;5074419;28;20198;-59
2023/04/30 08:25:04;;;;;;;6.50;5.97;;;;;;;14.95;87.91;96623.94;5073638;28;20563;-60
2023/04/30 08:27:31;;;;;;;6.30;5.80;;;;;;;14.71;89.10;96618.69;5073851;28;20198;-61
2023/04/30 08:29:57;;;;;;;6.30;5.80;;;;;;;14.88;88.53;96622.97;5073708;28;21320;-60
2023/04/30 08:32:24;;;;;;;7.07;6.05;;;;;;;14.87;87.29;96624.00;5074256;28;20226;-60
2023/04/30 08:34:52;;;;;;;6.68;6.07;;;;;;;15.06;86.79;96619.25;5073634;28;20206;-60
2023/04/30 08:37:18;;;;;;;6.30;5.80;;;;;;;14.91;88.33;96622.63;5073789;28;20214;-60
2023/04/30 08:39:45;;;;;;;6.38;5.88;;;;;;;14.93;87.14;96617.16;5073102;28;20268;-59
2023/04/30 08:42:14;;;;;;;6.40;5.90;;;;;;;15.10;86.71;96618.75;5073923;28;20206;-60
2023/04/30 08:44:42;;;;;;;6.03;5.53;;;;;;;15.24;84.72;96623.38;5073156;28;20217;-60
2023/04/30 08:47:12;;;;;;;6.53;5.93;;;;;;;15.27;87.06;96627.50;5073531;28;21333;-60
2023/04/30 08:49:38;;;;;;;6.75;6.25;;;;;;;15.50;85.20;96628.47;5073654;28;20205;-60
2023/04/30 08:52:07;;;;;;;6.38;5.82;;;;;;;15.74;82.95;96623.00;5072776;28;20194;-61
2023/04/30 08:54:35;;;;;;;5.57;5.00;;;;;;;15.97;83.57;96638.22;5072849;28;20210;-61
2023/04/30 08:57:02;;;;;;;5.90;5.50;;;;;;;15.99;83.50;96633.50;5083608;28;20210;-60
2023/04/30 08:59:34;;;;;;;5.38;4.97;;;;;;;15.78;83.32;96637.66;5086098;28;20199;-61
2023/04/30 09:02:01;;;;;;;5.53;5.13;;;;;;;15.88;82.55;96637.41;5076097;28;20207;-61
2023/04/30 09:04:28;;;;;;;5.57;5.07;;;;;;;15.92;81.73;96636.88;5072823;28;20211;-61
2023/04/30 09:06:57;;;;;;;5.70;5.20;;;;;;;15.67;81.92;96632.69;5072480;28;20210;-59
2023/04/30 09:09:28;;;;;;;5.68;5.28;;;;;;;15.65;81.97;96636.56;5073105;28;20210;-60
2023/04/30 09:12:11;;;;;;;6.53;5.80;;;;;;;15.70;81.07;96629.69;5074191;28;20217;-61
2023/04/30 09:14:39;;;;;;;5.82;5.43;;;;;;;15.87;82.14;96628.56;5076809;28;20259;-60
2023/04/30 09:17:05;;;;;;;6.25;5.75;;;;;;;15.91;81.56;96631.72;5084376;28;20199;-61
2023/04/30 09:19:32;;;;;;;6.68;6.07;;;;;;;15.76;81.82;96631.66;5088757;28;20555;-61
2023/04/30 09:21:58;;;;;;;5.68;5.18;;;;;;;15.94;82.16;96626.88;5084983;28;20213;-61
2023/04/30 09:24:26;;;;;;;5.97;5.57;;;;;;;16.08;80.23;96622.63;5072902;28;20209;-61
2023/04/30 09:26:53;;;;;;;6.18;5.68;;;;;;;16.09;79.41;96629.59;5072955;28;20213;-60
2023/04/30 09:29:20;;;;;;;6.03;5.55;;;;;;;16.14;81.40;96635.25;5071630;28;20210;-61
2023/04/30 09:31:50;;;;;;;5.70;5.20;;;;;;;16.29;79.88;96629.97;5072120;28;20205;-60
2023/04/30 09:34:16;;;;;;;6.18;5.68;;;;;;;16.38;79.08;96623.56;5072697;28;20530;-60
2023/04/30 09:36:53;;;;;;;6.40;5.90;;;;;;;16.34;78.84;96619.56;5071457;28;20218;-59
2023/04/30 09:39:20;;;;;;;6.10;5.60;;;;;;;16.37;80.08;96616.53;5072194;28;20256;-60
2023/04/30 09:41:48;;;;;;;6.45;5.85;;;;;;;16.14;79.08;96621.06;5071682;28;20259;-60
2023/04/30 09:44:28;;;;;;;5.75;5.35;;;;;;;16.13;79.79;96617.56;5072243;28;20198;-60
2023/04/30 09:46:56;;;;;;;5.53;5.13;;;;;;;16.05;81.18;96616.81;5073748;28;20194;-62
2023/04/30 09:49:22;;;;;;;6.00;5.50;;;;;;;16.03;80.21;96614.31;5072322;28;20197;-61
2023/04/30 09:51:54;;;;;;;6.15;5.55;;;;;;;15.91;81.58;96608.56;5072690;28;20206;-59
2023/04/30 09:54:21;;;;;;;5.28;4.88;;;;;;;16.14;83.09;96610.41;5071892;28;20271;-59
2023/04/30 09:56:51;;;;;;;5.15;4.75;;;;;;;15.99;80.44;96614.84;5072567;28;20234;-60
2023/04/30 09:59:19;;;;;;;5.97;5.47;;;;;;;16.00;81.07;96613.84;5071318;28;20627;-61
2023/04/30 10:01:46;;;;;;;5.68;5.18;;;;;;;15.92;81.73;96607.56;5072045;28;20210;-60
2023/04/30 10:04:12;;;;;;;5.32;4.93;;;;;;;16.17;81.31;96605.53;5071631;28;20835;-60
2023/04/30 10:06:39;;;;;;;5.40;5.00;;;;;;;16.26;79.81;96603.66;5072509;28;20225;-60
2023/04/30 10:09:08;;;;;;;6.00;5.40;;;;;;;16.84;80.74;96593.13;5072280;28;20206;-62
2023/04/30 10:11:37;;;;;;;5.40;5.00;;;;;;;17.25;77.31;96593.47;5072011;28;20226;-62
2023/04/30 10:14:10;;;;;;;5.13;4.75;;;;;;;17.57;75.90;96594.94;5071150;28;20226;-62
2023/04/30 10:16:40;;;;;;;5.25;4.95;;;;;;;17.81;72.82;96585.75;5072453;28;20198;-62
2023/04/30 10:19:11;;;;;;;5.28;4.97;;;;;;;17.69;72.96;96582.75;5072111;28;20238;-62
2023/04/30 10:21:40;;;;;;;4.80;4.50;;;;;;;17.80;73.87;96584.94;5071359;28;20209;-61
2023/04/30 10:24:08;;;;;;;5.10;4.70;;;;;;;17.63;74.73;96582.69;5070605;28;20209;-63
2023/04/30 10:26:34;;;;;;;5.65;4.75;;;;;;;17.58;73.72;96572.53;5071212;28;20512;-64
2023/04/30 10:29:01;;;;;;;4.60;4.22;;;;;;;17.65;73.03;96570.75;5071009;28;20647;-59
2023/04/30 10:31:30;;;;;;;3.90;3.70;;;;;;;17.59;71.97;96576.88;5071364;28;20244;-63
2023/04/30 10:34:02;;;;;;;3.92;3.63;;;;;;;17.48;70.18;96582.66;5071469;28;20321;-66
2023/04/30 10:36:37;;;;;;;3.75;3.55;;;;;;;17.96;68.14;96575.03;5071974;28;20214;-64
2023/04/30 10:39:05;;;;;;;4.18;3.28;;;;;;;17.97;67.53;96569.47;5071533;28;20221;-64
2023/04/30 10:41:31;;;;;;;4.53;3.60;;;;;;;17.85;68.65;96574.47;5071488;28;20210;-62
2023/04/30 10:43:59;;;;;;;3.80;3.50;;;;;;;18.03;67.35;96562.53;5071571;28;20190;-65
2023/04/30 10:46:27;;;;;;;3.90;3.60;;;;;;;18.12;66.48;96567.56;5070675;28;20206;-63
2023/04/30 10:48:59;;;;;;;3.50;3.30;;;;;;;18.20;67.37;96562.09;5071499;28;20241;-64
2023/04/30 10:51:46;;;;;;;3.47;3.28;;;;;;;18.32;67.40;96554.34;5071068;28;20198;-62
2023/04/30 10:54:16;;;;;;;5.13;3.35;;;;;;;18.40;66.75;96554.19;5069723;28;20219;-64
2023/04/30 10:56:44;;;;;;;3.25;3.05;;;;;;;18.18;65.51;96540.00;5070691;28;20297;-64
2023/04/30 10:59:14;;;;;;;2.78;2.58;;;;;;;18.72;66.20;96540.25;5069950;28;20202;-64
2023/04/30 11:01:55;;;;;;;3.30;3.10;;;;;;;18.53;64.02;96532.91;5070836;28;20202;-63
2023/04/30 11:04:23;;;;;;;3.40;3.10;;;;;;;18.72;65.34;96532.22;5070041;28;20206;-61
2023/04/30 11:06:55;;;;;;;3.70;2.90;;;;;;;18.97;63.91;96543.31;5070731;28;20209;-65
2023/04/30 11:09:36;;;;;;;3.10;2.90;;;;;;;18.90;62.91;96531.72;5071103;28;20646;-63
2023/04/30 11:12:03;;;;;;;2.90;2.80;;;;;;;18.78;62.95;96542.16;5072171;28;20236;-63
2023/04/30 11:14:33;;;;;;;2.90;2.78;;;;;;;18.77;63.77;96543.19;5072028;28;20254;-62
2023/04/30 11:17:00;;;;;;;2.83;2.63;;;;;;;18.61;64.45;96546.16;5071444;28;20199;-63
2023/04/30 11:19:29;;;;;;;2.90;2.70;;;;;;;18.57;62.73;96536.84;5070918;28;20428;-64
2023/04/30 11:22:25;;;;;;;3.05;2.70;;;;;;;18.69;64.54;96550.53;5071667;28;20241;-63
2023/04/30 11:25:04;;;;;;;2.53;2.42;;;;;;;18.48;63.81;96537.16;5070714;28;20551;-64
2023/04/30 11:27:33;;;;;;;2.97;2.78;;;;;;;18.42;64.63;96538.78;5070085;28;20252;-62
2023/04/30 11:30:00;;;;;;;3.13;2.83;;;;;;;18.39;64.24;96542.66;5070074;28;20290;-68
2023/04/30 11:32:32;;;;;;;2.63;2.42;;;;;;;18.27;64.06;96551.44;5070161;28;20206;-65